Terminal Aerodrome Forecast
Issued by NWS

Home | Current Version | Previous Version | Text Only | Print | Product List | Glossary On
Versions: 1 2 3 4 5 6 7 8 9 10 11 12 13 14 15 16 17
000
FTUS45 KVEF 070003 AAA
TAFHND
TAF AMD
KHND 070003Z 0700/0724 16009KT P6SM VCTS SCT100CB BKN200
     FM070400 22008KT P6SM FEW120 SCT150
     FM071000 VRB05KT P6SM FEW120 SCT200
     FM071900 18012KT P6SM SCT120 BKN200=

USA.gov is the U.S. government's official web portal to all federal, state and local government web resources and services.